createdAt,value
2018-04-24T00:01:50.004Z,18.80
2018-04-24T00:04:17.580Z,18.80
2018-04-24T00:06:45.129Z,18.70
2018-04-24T00:09:12.759Z,18.70
2018-04-24T00:11:40.331Z,18.70
2018-04-24T00:14:07.877Z,18.70
2018-04-24T00:16:35.428Z,18.80
2018-04-24T00:19:03.082Z,18.80
2018-04-24T00:21:30.624Z,18.80
2018-04-24T00:23:58.224Z,18.80
2018-04-24T00:26:25.793Z,18.70
2018-04-24T00:28:53.332Z,18.70
2018-04-24T00:31:20.887Z,18.70
2018-04-24T00:33:48.491Z,18.70
2018-04-24T00:36:16.058Z,18.70
2018-04-24T00:38:43.626Z,18.70
2018-04-24T00:41:11.200Z,18.70
2018-04-24T00:43:38.756Z,18.70
2018-04-24T00:46:07.091Z,18.70
2018-04-24T00:48:34.635Z,18.70
2018-04-24T00:51:02.200Z,18.70
2018-04-24T00:53:36.648Z,18.60
2018-04-24T00:56:04.225Z,18.60
2018-04-24T00:58:31.793Z,18.50
2018-04-24T01:01:00.102Z,18.40
2018-04-24T01:03:27.681Z,18.40
2018-04-24T01:05:55.259Z,18.40
2018-04-24T01:08:23.232Z,18.30
2018-04-24T01:10:50.828Z,18.30
2018-04-24T01:13:18.393Z,18.20
2018-04-24T01:15:46.747Z,18.30
2018-04-24T01:18:14.316Z,18.20
2018-04-24T01:20:41.915Z,18.30
2018-04-24T01:23:09.537Z,18.20
2018-04-24T01:25:37.119Z,18.10
2018-04-24T01:28:04.699Z,18.20
2018-04-24T01:30:32.298Z,18.20
2018-04-24T01:32:59.868Z,18.20
2018-04-24T01:35:27.519Z,18.20
2018-04-24T01:37:55.078Z,18.30
2018-04-24T01:40:22.639Z,18.20
2018-04-24T01:42:50.230Z,18.20
2018-04-24T01:45:17.786Z,18.20
2018-04-24T01:47:46.144Z,18.10
2018-04-24T01:50:13.735Z,18.20
2018-04-24T01:52:41.301Z,18.10
2018-04-24T01:55:08.896Z,18.10
2018-04-24T01:57:36.451Z,18.00
2018-04-24T02:00:04.043Z,18.00
2018-04-24T02:02:31.605Z,18.00
2018-04-24T02:04:59.161Z,18.00
2018-04-24T02:07:26.724Z,18.00
2018-04-24T02:09:54.314Z,18.10
2018-04-24T02:12:21.867Z,18.10
2018-04-24T02:14:49.454Z,18.10
2018-04-24T02:17:17.045Z,18.10
2018-04-24T02:19:44.630Z,18.10
2018-04-24T02:22:12.206Z,18.20
2018-04-24T02:24:39.781Z,18.20
2018-04-24T02:27:07.393Z,18.10
2018-04-24T02:29:35.220Z,18.00
2018-04-24T02:32:02.785Z,17.90
2018-04-24T02:34:30.368Z,18.00
2018-04-24T02:36:57.924Z,18.00
2018-04-24T02:39:25.511Z,18.00
2018-04-24T02:41:53.043Z,17.90
2018-04-24T02:44:20.731Z,17.90
2018-04-24T02:46:48.808Z,18.00
2018-04-24T02:49:16.381Z,17.90
2018-04-24T02:51:43.912Z,17.90
2018-04-24T02:54:11.468Z,17.80
2018-04-24T02:56:39.030Z,17.80
2018-04-24T02:59:07.392Z,17.80
2018-04-24T03:01:35.180Z,17.80
2018-04-24T03:04:02.726Z,17.70
2018-04-24T03:06:30.293Z,17.60
2018-04-24T03:08:57.835Z,17.60
2018-04-24T03:11:25.412Z,17.60
2018-04-24T03:13:52.996Z,17.70
2018-04-24T03:16:20.571Z,17.70
2018-04-24T03:18:48.952Z,17.80
2018-04-24T03:21:16.496Z,17.80
2018-04-24T03:23:44.068Z,17.60
2018-04-24T03:26:12.406Z,17.70
2018-04-24T03:28:39.946Z,17.80
2018-04-24T03:31:07.591Z,17.70
2018-04-24T03:33:35.160Z,17.60
2018-04-24T03:36:02.743Z,17.70
2018-04-24T03:38:30.498Z,17.70
2018-04-24T03:40:58.029Z,17.70
2018-04-24T03:43:25.617Z,17.70
2018-04-24T03:45:53.245Z,17.70
2018-04-24T03:48:20.808Z,17.80
2018-04-24T03:50:49.149Z,17.70
2018-04-24T03:53:16.715Z,17.70
2018-04-24T03:55:44.601Z,17.80
2018-04-24T03:58:12.423Z,17.60
2018-04-24T04:00:39.955Z,17.60
2018-04-24T04:03:07.508Z,17.70
2018-04-24T04:05:35.150Z,17.60
2018-04-24T04:08:03.486Z,17.60
2018-04-24T04:10:31.030Z,17.60
2018-04-24T04:12:58.655Z,17.70
2018-04-24T04:15:26.316Z,17.60
2018-04-24T04:18:05.663Z,17.50
2018-04-24T04:20:45.711Z,17.50
2018-04-24T04:23:25.720Z,17.50
2018-04-24T04:25:53.280Z,17.50
2018-04-24T04:28:20.811Z,17.50
2018-04-24T04:30:48.730Z,17.50
2018-04-24T04:33:16.262Z,17.50
2018-04-24T04:35:44.545Z,17.60
2018-04-24T04:38:12.151Z,17.60
2018-04-24T04:40:39.692Z,17.60
2018-04-24T04:43:07.264Z,17.60
2018-04-24T04:45:35.552Z,17.50
2018-04-24T04:48:03.154Z,17.50
2018-04-24T04:50:30.773Z,17.60
2018-04-24T04:52:58.383Z,17.50
2018-04-24T04:55:25.931Z,17.50
2018-04-24T04:57:53.458Z,17.50
2018-04-24T05:00:21.078Z,17.50
2018-04-24T05:02:48.636Z,17.50
2018-04-24T05:05:16.233Z,17.60
2018-04-24T05:07:43.830Z,17.70
2018-04-24T05:10:11.356Z,17.70
2018-04-24T05:12:38.912Z,17.80
2018-04-24T05:15:06.480Z,17.80
2018-04-24T05:17:34.027Z,17.80
2018-04-24T05:20:01.662Z,17.80
2018-04-24T05:22:29.215Z,17.80
2018-04-24T05:24:56.777Z,17.70
2018-04-24T05:27:24.575Z,17.70
2018-04-24T05:29:52.195Z,17.70
2018-04-24T05:32:19.789Z,17.80
2018-04-24T05:34:48.167Z,17.90
2018-04-24T05:37:16.497Z,17.90
2018-04-24T05:39:44.101Z,17.90
2018-04-24T05:42:11.688Z,18.00
2018-04-24T05:44:39.324Z,18.00
2018-04-24T05:47:07.048Z,18.00
2018-04-24T05:49:34.617Z,18.00
2018-04-24T05:52:02.188Z,18.00
2018-04-24T05:54:29.759Z,18.00
2018-04-24T05:56:57.376Z,17.90
2018-04-24T05:59:24.932Z,17.90
2018-04-24T06:01:52.500Z,17.90
2018-04-24T06:04:20.105Z,18.00
2018-04-24T06:06:48.469Z,18.00
2018-04-24T06:09:16.186Z,18.00
2018-04-24T06:11:43.783Z,18.00
2018-04-24T06:14:11.381Z,18.00
2018-04-24T06:16:38.920Z,18.10
2018-04-24T06:19:06.618Z,18.10
2018-04-24T06:21:34.195Z,18.20
2018-04-24T06:24:01.740Z,18.20
2018-04-24T06:26:29.275Z,18.20
2018-04-24T06:28:56.845Z,18.20
2018-04-24T06:31:24.406Z,18.30
2018-04-24T06:33:51.996Z,18.40
2018-04-24T06:36:19.762Z,18.40
2018-04-24T06:38:48.154Z,18.40
2018-04-24T06:41:15.717Z,18.30
2018-04-24T06:43:43.281Z,18.40
2018-04-24T06:46:10.855Z,18.40
2018-04-24T06:48:38.522Z,18.40
2018-04-24T06:51:06.092Z,18.40
2018-04-24T06:53:34.439Z,18.60
2018-04-24T06:56:02.017Z,18.50
2018-04-24T06:58:29.644Z,18.60
2018-04-24T07:00:57.525Z,18.60
2018-04-24T07:03:25.119Z,18.60
2018-04-24T07:05:52.704Z,18.70
2018-04-24T07:08:21.089Z,19.00
2018-04-24T07:10:48.784Z,19.00
2018-04-24T07:13:16.386Z,19.20
2018-04-24T07:15:44.051Z,19.30
2018-04-24T07:18:12.384Z,19.60
2018-04-24T07:20:40.181Z,19.60
2018-04-24T07:23:07.725Z,19.70
2018-04-24T07:25:35.305Z,19.80
2018-04-24T07:28:02.931Z,20.00
2018-04-24T07:30:30.523Z,20.10
2018-04-24T07:32:58.786Z,20.20
2018-04-24T07:35:27.150Z,20.30
2018-04-24T07:37:54.720Z,20.30
2018-04-24T07:40:22.588Z,20.40
2018-04-24T07:42:50.821Z,20.40
2018-04-24T07:45:18.359Z,20.40
2018-04-24T07:47:45.957Z,20.40
2018-04-24T07:50:13.721Z,20.50
2018-04-24T07:52:41.414Z,20.60
2018-04-24T07:55:08.991Z,20.70
2018-04-24T07:57:36.548Z,20.80
2018-04-24T08:00:05.073Z,20.80
2018-04-24T08:02:32.600Z,20.80
2018-04-24T08:05:00.491Z,20.90
2018-04-24T08:07:28.790Z,21.00
2018-04-24T08:10:01.722Z,21.00
2018-04-24T08:12:29.284Z,21.00
2018-04-24T08:14:56.844Z,21.10
2018-04-24T08:17:24.531Z,21.10
2018-04-24T08:19:52.888Z,21.10
2018-04-24T08:22:20.446Z,21.10
2018-04-24T08:24:48.102Z,21.10
2018-04-24T08:27:15.978Z,21.10
2018-04-24T08:29:43.717Z,21.00
2018-04-24T08:32:11.313Z,21.00
2018-04-24T08:34:38.863Z,21.10
2018-04-24T08:37:06.477Z,21.10
2018-04-24T08:39:34.291Z,21.20
2018-04-24T08:42:02.711Z,21.20
2018-04-24T08:44:30.292Z,21.20
2018-04-24T08:46:57.860Z,21.20
2018-04-24T08:49:25.429Z,21.30
2018-04-24T08:51:52.990Z,21.30
2018-04-24T08:54:21.495Z,21.30
2018-04-24T08:56:49.167Z,21.30
2018-04-24T08:59:16.867Z,21.30
2018-04-24T09:01:44.441Z,21.30
2018-04-24T09:04:12.090Z,21.30
2018-04-24T09:06:39.821Z,21.30
2018-04-24T09:09:07.763Z,21.40
2018-04-24T09:11:35.332Z,21.40
2018-04-24T09:14:03.077Z,21.40
2018-04-24T09:16:30.708Z,21.40
2018-04-24T09:18:58.269Z,21.40
2018-04-24T09:21:25.839Z,21.50
2018-04-24T09:23:53.701Z,21.50
2018-04-24T09:26:21.281Z,21.50
2018-04-24T09:28:48.889Z,21.40
2018-04-24T09:31:17.192Z,21.40
2018-04-24T09:33:44.967Z,21.30
2018-04-24T09:36:12.626Z,21.30
2018-04-24T09:38:40.349Z,21.20
2018-04-24T09:41:08.019Z,21.20
2018-04-24T09:43:35.604Z,21.20
2018-04-24T09:46:03.255Z,21.10
2018-04-24T09:48:30.747Z,21.00
2018-04-24T09:51:03.317Z,21.00
2018-04-24T09:53:30.881Z,21.10
2018-04-24T09:55:58.426Z,21.10
2018-04-24T09:58:25.984Z,21.00
2018-04-24T10:00:53.543Z,21.10
2018-04-24T10:03:21.151Z,21.10
2018-04-24T10:05:48.727Z,21.20
2018-04-24T10:08:16.333Z,21.20
2018-04-24T10:10:43.906Z,21.30
2018-04-24T10:13:11.453Z,21.30
2018-04-24T10:15:39.043Z,21.30
2018-04-24T10:18:06.620Z,21.40
2018-04-24T10:20:35.073Z,21.50
2018-04-24T10:23:02.651Z,21.50
2018-04-24T10:25:30.255Z,21.50
2018-04-24T10:27:58.344Z,21.50
2018-04-24T10:30:25.991Z,21.60
2018-04-24T10:32:53.541Z,21.60
2018-04-24T10:35:22.076Z,21.60
2018-04-24T10:37:49.744Z,21.60
2018-04-24T10:40:17.377Z,21.70
2018-04-24T10:42:44.960Z,21.60
2018-04-24T10:45:12.512Z,21.60
2018-04-24T10:47:40.203Z,21.70
2018-04-24T10:50:07.801Z,21.70
2018-04-24T10:52:35.821Z,21.80
2018-04-24T10:55:03.469Z,21.80
2018-04-24T10:57:31.077Z,21.90
2018-04-24T10:59:58.857Z,21.80
2018-04-24T11:02:26.460Z,21.90
2018-04-24T11:04:54.155Z,21.90
2018-04-24T11:07:21.764Z,21.90
2018-04-24T11:09:49.463Z,22.00
2018-04-24T11:12:17.037Z,21.90
2018-04-24T11:14:44.695Z,21.80
2018-04-24T11:17:12.279Z,21.70
2018-04-24T11:19:39.882Z,21.80
2018-04-24T11:22:07.453Z,21.70
2018-04-24T11:24:35.264Z,21.70
2018-04-24T11:27:02.903Z,21.80
2018-04-24T11:29:30.560Z,21.70
2018-04-24T11:31:58.897Z,21.90
2018-04-24T11:34:26.520Z,21.90
2018-04-24T11:36:54.145Z,21.90
2018-04-24T11:39:21.747Z,21.90
2018-04-24T11:41:49.468Z,21.90
2018-04-24T11:44:17.144Z,22.00
2018-04-24T11:46:44.785Z,22.00
2018-04-24T11:49:12.355Z,22.10
2018-04-24T11:51:39.960Z,22.10
2018-04-24T11:54:07.594Z,22.10
2018-04-24T11:56:35.935Z,23.30
2018-04-24T11:59:03.644Z,22.10
2018-04-24T12:01:31.276Z,22.10
2018-04-24T12:03:58.964Z,22.10
2018-04-24T12:06:27.658Z,22.20
2018-04-24T12:08:55.421Z,22.20
2018-04-24T12:11:23.725Z,22.30
2018-04-24T12:13:51.429Z,22.30
2018-04-24T12:16:19.060Z,22.30
2018-04-24T12:18:46.669Z,22.30
2018-04-24T12:21:14.200Z,22.40
2018-04-24T12:23:41.816Z,22.40
2018-04-24T12:26:09.405Z,22.40
2018-04-24T12:28:36.978Z,22.50
2018-04-24T12:31:04.658Z,22.50
2018-04-24T12:33:32.207Z,22.50
2018-04-24T12:35:59.815Z,22.50
2018-04-24T12:38:28.251Z,22.60
2018-04-24T12:40:56.061Z,22.70
2018-04-24T12:43:23.593Z,22.70
2018-04-24T12:45:51.177Z,22.70
2018-04-24T12:48:19.568Z,22.70
2018-04-24T12:50:47.097Z,22.70
2018-04-24T12:53:14.754Z,22.70
2018-04-24T12:55:42.329Z,22.70
2018-04-24T12:58:10.713Z,22.70
2018-04-24T13:00:39.058Z,22.70
2018-04-24T13:03:06.596Z,22.70
2018-04-24T13:05:34.350Z,22.70
2018-04-24T13:08:01.907Z,22.70
2018-04-24T13:10:29.540Z,22.70
2018-04-24T13:12:57.085Z,22.70
2018-04-24T13:15:24.652Z,22.70
2018-04-24T13:17:52.229Z,22.70
2018-04-24T13:20:19.808Z,22.80
2018-04-24T13:22:47.599Z,22.70
2018-04-24T13:25:15.403Z,22.70
2018-04-24T13:27:42.969Z,22.70
2018-04-24T13:30:10.571Z,22.70
2018-04-24T13:32:39.103Z,22.70
2018-04-24T13:35:07.421Z,22.70
2018-04-24T13:37:35.047Z,22.80
2018-04-24T13:40:03.344Z,22.80
2018-04-24T13:42:31.110Z,22.80
2018-04-24T13:44:58.663Z,22.70
2018-04-24T13:47:26.282Z,22.80
2018-04-24T13:49:54.034Z,22.80
2018-04-24T13:52:22.426Z,22.80
2018-04-24T13:54:50.016Z,22.80
2018-04-24T13:57:17.663Z,22.70
2018-04-24T13:59:46.038Z,22.70
2018-04-24T14:02:13.726Z,22.70
2018-04-24T14:04:41.297Z,22.70
2018-04-24T14:07:08.901Z,22.70
2018-04-24T14:09:37.216Z,22.70
2018-04-24T14:12:04.822Z,22.70
2018-04-24T14:14:32.444Z,22.70
2018-04-24T14:17:00.053Z,22.70
2018-04-24T14:19:27.790Z,22.70
2018-04-24T14:21:55.535Z,22.70
2018-04-24T14:24:23.135Z,22.70
2018-04-24T14:26:50.677Z,22.80
2018-04-24T14:29:18.290Z,22.80
2018-04-24T14:31:46.630Z,22.80
2018-04-24T14:34:14.394Z,22.80
2018-04-24T14:36:41.996Z,22.80
2018-04-24T14:39:09.576Z,22.80
2018-04-24T14:41:37.148Z,22.80
2018-04-24T14:44:04.754Z,22.80
2018-04-24T14:46:32.339Z,22.80
2018-04-24T14:49:00.706Z,22.80
2018-04-24T14:51:28.499Z,22.80
2018-04-24T14:53:56.864Z,22.90
2018-04-24T14:56:25.289Z,22.90
2018-04-24T14:58:52.881Z,22.80
2018-04-24T15:01:20.467Z,22.80
2018-04-24T15:03:48.808Z,22.80
2018-04-24T15:06:16.358Z,22.80
2018-04-24T15:08:43.931Z,22.80
2018-04-24T15:11:11.471Z,22.70
2018-04-24T15:13:39.253Z,22.70
2018-04-24T15:16:06.777Z,22.70
2018-04-24T15:18:34.373Z,22.80
2018-04-24T15:21:01.957Z,22.80
2018-04-24T15:23:30.302Z,22.70
2018-04-24T15:25:57.875Z,22.70
2018-04-24T15:28:25.456Z,22.70
2018-04-24T15:30:54.506Z,22.70
2018-04-24T15:33:22.498Z,22.70
2018-04-24T15:35:50.098Z,22.70
2018-04-24T15:38:18.420Z,22.70
2018-04-24T15:40:46.845Z,22.70
2018-04-24T15:43:14.532Z,22.70
2018-04-24T15:45:42.096Z,22.70
2018-04-24T15:48:09.714Z,22.80
2018-04-24T15:50:37.300Z,22.80
2018-04-24T15:53:05.619Z,22.80
2018-04-24T15:55:33.191Z,22.90
2018-04-24T15:58:05.011Z,22.80
2018-04-24T16:00:32.735Z,22.70
2018-04-24T16:03:00.369Z,22.70
2018-04-24T16:05:28.235Z,22.70
2018-04-24T16:07:55.803Z,22.70
2018-04-24T16:10:23.326Z,22.70
2018-04-24T16:12:50.898Z,22.70
2018-04-24T16:15:18.519Z,22.70
2018-04-24T16:17:46.063Z,22.70
2018-04-24T16:20:13.697Z,22.60
2018-04-24T16:22:41.276Z,22.50
2018-04-24T16:25:08.897Z,22.50
2018-04-24T16:27:36.578Z,22.50
2018-04-24T16:30:04.334Z,22.50
2018-04-24T16:32:31.804Z,22.50
2018-04-24T16:34:59.404Z,22.40
2018-04-24T16:37:27.054Z,22.40
2018-04-24T16:39:54.651Z,22.30
2018-04-24T16:42:22.215Z,22.40
2018-04-24T16:44:50.366Z,22.40
2018-04-24T16:47:17.987Z,22.30
2018-04-24T16:49:45.564Z,22.30
2018-04-24T16:52:13.209Z,22.30
2018-04-24T16:54:40.776Z,22.20
2018-04-24T16:57:08.413Z,22.20
2018-04-24T16:59:36.016Z,22.20
2018-04-24T17:02:03.746Z,22.20
2018-04-24T17:04:31.810Z,22.30
2018-04-24T17:06:59.346Z,22.30
2018-04-24T17:09:26.971Z,22.30
2018-04-24T17:11:54.588Z,22.30
2018-04-24T17:14:22.152Z,22.30
2018-04-24T17:16:49.735Z,22.30
2018-04-24T17:19:17.386Z,22.20
2018-04-24T17:21:44.984Z,22.20
2018-04-24T17:24:12.593Z,22.20
2018-04-24T17:26:40.238Z,22.10
2018-04-24T17:29:07.873Z,22.00
2018-04-24T17:31:36.237Z,22.00
2018-04-24T17:34:03.833Z,21.90
2018-04-24T17:36:31.450Z,21.90
2018-04-24T17:38:59.041Z,21.90
2018-04-24T17:41:26.623Z,21.90
2018-04-24T17:43:54.232Z,21.90
2018-04-24T17:46:21.965Z,21.90
2018-04-24T17:48:49.528Z,21.90
2018-04-24T17:51:17.096Z,22.00
2018-04-24T17:53:44.651Z,22.00
2018-04-24T17:56:12.244Z,22.00
2018-04-24T17:58:39.816Z,22.00
2018-04-24T18:01:08.148Z,22.00
2018-04-24T18:03:35.716Z,21.90
2018-04-24T18:06:03.316Z,21.90
2018-04-24T18:08:30.940Z,21.90
2018-04-24T18:10:58.518Z,21.90
2018-04-24T18:13:26.128Z,21.90
2018-04-24T18:15:53.695Z,21.90
2018-04-24T18:18:21.295Z,21.80
2018-04-24T18:20:48.848Z,21.80
2018-04-24T18:23:16.427Z,21.80
2018-04-24T18:25:44.152Z,21.70
2018-04-24T18:28:11.711Z,21.70
2018-04-24T18:30:39.281Z,21.70
2018-04-24T18:33:06.840Z,21.70
2018-04-24T18:35:34.402Z,21.60
2018-04-24T18:38:01.999Z,21.60
2018-04-24T18:40:29.607Z,21.60
2018-04-24T18:42:57.786Z,21.50
2018-04-24T18:45:25.363Z,21.50
2018-04-24T18:47:53.020Z,21.40
2018-04-24T18:50:20.588Z,21.40
2018-04-24T18:52:48.940Z,21.20
2018-04-24T18:55:16.610Z,21.20
2018-04-24T18:57:44.234Z,21.20
2018-04-24T19:00:11.814Z,21.10
2018-04-24T19:02:39.391Z,21.10
2018-04-24T19:05:06.965Z,21.10
2018-04-24T19:07:34.561Z,21.00
2018-04-24T19:10:02.144Z,20.90
2018-04-24T19:12:32.707Z,20.80
2018-04-24T19:15:00.854Z,20.80
2018-04-24T19:17:28.445Z,20.80
2018-04-24T19:19:55.976Z,20.70
2018-04-24T19:22:24.428Z,20.60
2018-04-24T19:24:58.401Z,20.60
2018-04-24T19:27:26.052Z,20.60
2018-04-24T19:29:53.617Z,20.50
2018-04-24T19:32:26.924Z,20.50
2018-04-24T19:34:54.565Z,20.40
2018-04-24T19:37:22.196Z,20.40
2018-04-24T19:39:55.284Z,20.30
2018-04-24T19:42:23.743Z,20.30
2018-04-24T19:44:51.320Z,20.20
2018-04-24T19:47:19.612Z,20.10
2018-04-24T19:49:53.687Z,20.00
2018-04-24T19:52:21.227Z,20.00
2018-04-24T19:54:54.380Z,20.00
2018-04-24T19:57:21.971Z,19.80
2018-04-24T19:59:49.591Z,19.60
2018-04-24T20:02:17.147Z,19.60
2018-04-24T20:04:44.708Z,19.60
2018-04-24T20:07:13.006Z,19.60
2018-04-24T20:09:40.694Z,19.60
2018-04-24T20:12:08.270Z,19.60
2018-04-24T20:14:35.934Z,19.60
2018-04-24T20:17:04.272Z,19.60
2018-04-24T20:19:31.843Z,19.60
2018-04-24T20:21:59.425Z,19.50
2018-04-24T20:24:27.029Z,19.50
2018-04-24T20:26:55.226Z,19.40
2018-04-24T20:29:22.784Z,19.40
2018-04-24T20:31:50.357Z,19.30
2018-04-24T20:34:17.952Z,19.30
2018-04-24T20:36:45.551Z,19.20
2018-04-24T20:39:13.139Z,19.20
2018-04-24T20:41:40.701Z,19.10
2018-04-24T20:44:08.265Z,19.10
2018-04-24T20:46:35.864Z,19.00
2018-04-24T20:49:03.419Z,19.00
2018-04-24T20:51:31.015Z,18.90
2018-04-24T20:53:58.636Z,19.00
2018-04-24T20:56:26.169Z,19.10
2018-04-24T20:58:53.776Z,19.00
2018-04-24T21:01:21.329Z,18.90
2018-04-24T21:03:49.031Z,18.90
2018-04-24T21:06:16.822Z,18.80
2018-04-24T21:08:44.463Z,18.70
2018-04-24T21:11:12.041Z,18.70
2018-04-24T21:13:39.587Z,18.60
2018-04-24T21:16:07.203Z,18.60
2018-04-24T21:18:35.514Z,18.50
2018-04-24T21:21:03.055Z,18.50
2018-04-24T21:23:30.644Z,18.50
2018-04-24T21:25:58.195Z,18.50
2018-04-24T21:28:25.826Z,18.50
2018-04-24T21:30:53.449Z,18.40
2018-04-24T21:33:21.027Z,18.40
2018-04-24T21:35:48.565Z,18.30
2018-04-24T21:38:16.143Z,18.30
2018-04-24T21:40:43.767Z,18.20
2018-04-24T21:43:11.367Z,18.20
2018-04-24T21:45:38.954Z,18.10
2018-04-24T21:48:06.552Z,18.20
2018-04-24T21:50:34.132Z,18.20
2018-04-24T21:53:01.702Z,18.20
2018-04-24T21:55:29.295Z,18.00
2018-04-24T21:57:56.840Z,18.00
2018-04-24T22:00:24.400Z,18.00
2018-04-24T22:02:52.769Z,17.70
2018-04-24T22:05:20.335Z,17.70
2018-04-24T22:07:47.898Z,17.60
2018-04-24T22:10:15.471Z,17.60
2018-04-24T22:12:43.768Z,17.70
2018-04-24T22:15:11.345Z,17.60
2018-04-24T22:17:38.909Z,17.60
2018-04-24T22:20:06.493Z,17.60
2018-04-24T22:22:34.055Z,17.60
2018-04-24T22:25:01.687Z,17.60
2018-04-24T22:27:29.241Z,17.50
2018-04-24T22:29:56.808Z,17.50
2018-04-24T22:32:24.402Z,17.50
2018-04-24T22:34:51.972Z,17.50
2018-04-24T22:37:19.498Z,17.50
2018-04-24T22:39:47.057Z,17.50
2018-04-24T22:42:14.654Z,17.50
2018-04-24T22:44:42.224Z,17.50
2018-04-24T22:47:09.752Z,17.50
2018-04-24T22:49:37.318Z,17.50
2018-04-24T22:52:04.857Z,17.30
2018-04-24T22:54:32.468Z,17.30
2018-04-24T22:57:00.018Z,17.30
2018-04-24T22:59:27.600Z,17.30
2018-04-24T23:01:55.149Z,17.30
2018-04-24T23:04:23.544Z,17.30
2018-04-24T23:06:51.091Z,17.30
2018-04-24T23:09:18.689Z,17.20
2018-04-24T23:11:58.038Z,17.20
2018-04-24T23:14:37.408Z,17.10
2018-04-24T23:17:16.768Z,17.10
2018-04-24T23:19:56.700Z,17.20
2018-04-24T23:22:31.986Z,17.20
2018-04-24T23:24:59.544Z,17.20
2018-04-24T23:27:27.160Z,17.20
2018-04-24T23:29:55.510Z,17.10
2018-04-24T23:32:23.061Z,17.10
2018-04-24T23:34:50.626Z,17.00
2018-04-24T23:37:18.206Z,17.00
2018-04-24T23:39:45.784Z,17.10
2018-04-24T23:42:13.399Z,17.10
2018-04-24T23:44:40.996Z,17.20
2018-04-24T23:47:08.583Z,17.20
2018-04-24T23:49:36.176Z,17.10
2018-04-24T23:52:03.744Z,17.00
2018-04-24T23:54:31.283Z,17.10
2018-04-24T23:56:58.855Z,17.00
2018-04-24T23:59:26.403Z,17.00
